Decoded Metar for KCGE (CAMBRIDGE-DORCH in MD, USA) (IATA:CGE) | Meteo·Mobile Aviation Weather
aviador You're here:

KCGE Decoded Metar

CAMBRIDGE-DORCH in MD, USA
Report Time2019-04-25 22:05:00
UTC Time2019-04-25 22:27:59
Flight Rules mvfr MVFR
Wind090° at 10 kt
W.Decomp.*RWY 16: 5.0 kt HW 8.7 kt LCW
Visibility9999 m
Phenomena:N/A
Clouds:Broken 026 Hf
Broken 033 Hf
Overcast 039 Hf
Expected CloudBase > 4,000 ft AGL from Temp-Dew spread
Ceiling2,600 ft
Temp20°C (ISA +5)
Dew Point10°C (53% RH)
AAT16.5°C
QNH1011 hPa
Density Alt843 ft
Elevation20 ft
Report Wrong Elevation
Raw Report
KCGE 252205Z AUTO 09010KT 10SM BKN026 BKN033 OVC039 20/10 A2986
RMK A01=

Extra information for KCGE:More info

Metar Taf Metar & Taf Last 4 Metars F.Rules Stats Wind Profile Meteogram Temp Stats Airport Information Weather charts Add Link Nearby VenuesMetar ALERT Operation Metar Decoded Social comments

AIRNAV info for KCGE